CCA1690 ZYHB-ZBAA
Flight info
| Callsign | CCA1690 |
|---|---|
| Flight time | 1h 33m |
| Altitude | 38100 |
| Route | LEG18D LEGAG W204 RUSBO G212 UKDUM W49 OSUBA OSUBA7X |
| Aircraft | B77W/H-SDE1E2E3FGHIJ2J3J4J5M1RWXY/LB1D1 |
Departure
| Time | 2026-04-20 22:52 |
|---|---|
| Airport | Harbin Taiping International Airport (ZYHB) |
Arrival
| Time | 2026-04-21 00:26 |
|---|---|
| Airport | Beijing Capital International Airport (ZBAA) |
| Time | Latitude | Longitude | Altitude | Speed | Heading |
|---|---|---|---|---|---|
| 2026-04-20 22:27 | 45.61570 | 126.23433 | 519 ft | 0 kts | 313° |
| 2026-04-20 22:41 | 45.61563 | 126.23444 | 519 ft | 2 kts | 303° |
| 2026-04-20 22:41 | 45.61556 | 126.23463 | 519 ft | 2 kts | 283° |
| 2026-04-20 22:41 | 45.61554 | 126.23484 | 519 ft | 2 kts | 268° |
| 2026-04-20 22:42 | 45.61556 | 126.23505 | 519 ft | 2 kts | 252° |
| 2026-04-20 22:42 | 45.61562 | 126.23524 | 519 ft | 2 kts | 237° |
| 2026-04-20 22:42 | 45.61572 | 126.23541 | 519 ft | 2 kts | 220° |
| 2026-04-20 22:42 | 45.61579 | 126.23549 | 519 ft | 0 kts | 216° |
| 2026-04-20 22:45 | 45.61567 | 126.23535 | 519 ft | 5 kts | 219° |
| 2026-04-20 22:45 | 45.61532 | 126.23492 | 519 ft | 9 kts | 219° |
| 2026-04-20 22:45 | 45.61466 | 126.23414 | 519 ft | 14 kts | 220° |
| 2026-04-20 22:46 | 45.61369 | 126.23388 | 519 ft | 16 kts | 141° |
| 2026-04-20 22:46 | 45.61350 | 126.23537 | 519 ft | 16 kts | 53° |
| 2026-04-20 22:46 | 45.61431 | 126.23639 | 519 ft | 16 kts | 39° |
| 2026-04-20 22:46 | 45.61540 | 126.23766 | 519 ft | 24 kts | 40° |
| 2026-04-20 22:47 | 45.61675 | 126.23924 | 519 ft | 25 kts | 39° |
| 2026-04-20 22:47 | 45.61811 | 126.24083 | 519 ft | 25 kts | 39° |
| 2026-04-20 22:47 | 45.61952 | 126.24249 | 519 ft | 27 kts | 38° |
| 2026-04-20 22:47 | 45.62106 | 126.24428 | 519 ft | 26 kts | 38° |
| 2026-04-20 22:48 | 45.62245 | 126.24592 | 519 ft | 24 kts | 38° |
| 2026-04-20 22:48 | 45.62382 | 126.24751 | 519 ft | 26 kts | 38° |
| 2026-04-20 22:48 | 45.62528 | 126.24922 | 519 ft | 28 kts | 39° |
| 2026-04-20 22:48 | 45.62681 | 126.25105 | 519 ft | 29 kts | 40° |
| 2026-04-20 22:49 | 45.62841 | 126.25291 | 519 ft | 30 kts | 39° |
| 2026-04-20 22:49 | 45.62987 | 126.25461 | 519 ft | 26 kts | 39° |
| 2026-04-20 22:49 | 45.63135 | 126.25635 | 519 ft | 24 kts | 40° |
| 2026-04-20 22:49 | 45.63261 | 126.25783 | 519 ft | 22 kts | 39° |
| 2026-04-20 22:50 | 45.63367 | 126.25908 | 519 ft | 14 kts | 39° |
| 2026-04-20 22:50 | 45.63469 | 126.26026 | 519 ft | 23 kts | 39° |
| 2026-04-20 22:50 | 45.63580 | 126.26163 | 519 ft | 17 kts | 51° |
| 2026-04-20 22:50 | 45.63553 | 126.26270 | 519 ft | 11 kts | 149° |
| 2026-04-20 22:51 | 45.63483 | 126.26294 | 519 ft | 9 kts | 169° |
| 2026-04-20 22:51 | 45.63427 | 126.26282 | 519 ft | 7 kts | 206° |
| 2026-04-20 22:51 | 45.63384 | 126.26241 | 519 ft | 7 kts | 218° |
| 2026-04-20 22:51 | 45.63231 | 126.26057 | 519 ft | 65 kts | 219° |
| 2026-04-20 22:52 | 45.62691 | 126.25427 | 519 ft | 135 kts | 219° |
| 2026-04-20 22:52 | 45.61883 | 126.24474 | 1050 ft | 154 kts | 221° |
| 2026-04-20 22:52 | 45.61030 | 126.23543 | 1881 ft | 155 kts | 220° |
| 2026-04-20 22:52 | 45.60141 | 126.22784 | 2584 ft | 151 kts | 218° |
| 2026-04-20 22:53 | 45.59188 | 126.22011 | 2986 ft | 160 kts | 226° |
| 2026-04-20 22:53 | 45.58305 | 126.21015 | 3460 ft | 167 kts | 231° |
| 2026-04-20 22:53 | 45.57639 | 126.19637 | 3624 ft | 178 kts | 263° |
| 2026-04-20 22:53 | 45.57659 | 126.17770 | 3828 ft | 199 kts | 279° |
| 2026-04-20 22:54 | 45.57496 | 126.15717 | 4340 ft | 224 kts | 251° |
| 2026-04-20 22:54 | 45.56469 | 126.13854 | 4930 ft | 248 kts | 232° |
| 2026-04-20 22:54 | 45.55339 | 126.12051 | 5782 ft | 249 kts | 239° |
| 2026-04-20 22:54 | 45.54293 | 126.10093 | 6600 ft | 252 kts | 241° |
| 2026-04-20 22:55 | 45.53262 | 126.08070 | 7442 ft | 255 kts | 242° |
| 2026-04-20 22:55 | 45.52229 | 126.06036 | 8294 ft | 257 kts | 242° |
| 2026-04-20 22:55 | 45.51183 | 126.03972 | 9107 ft | 260 kts | 243° |
| 2026-04-20 22:55 | 45.50123 | 126.01886 | 9946 ft | 262 kts | 243° |
| 2026-04-20 22:56 | 45.49033 | 125.99729 | 10404 ft | 278 kts | 243° |
| 2026-04-20 22:56 | 45.47877 | 125.97446 | 10799 ft | 296 kts | 243° |
| 2026-04-20 22:56 | 45.46634 | 125.94988 | 11185 ft | 314 kts | 242° |
| 2026-04-20 22:56 | 45.45341 | 125.92438 | 11605 ft | 330 kts | 242° |
| 2026-04-20 22:57 | 45.43959 | 125.89715 | 12034 ft | 346 kts | 242° |
| 2026-04-20 22:57 | 45.42538 | 125.86920 | 12582 ft | 358 kts | 242° |
| 2026-04-20 22:57 | 45.41019 | 125.84084 | 13344 ft | 368 kts | 237° |
| 2026-04-20 22:57 | 45.39313 | 125.81377 | 14233 ft | 371 kts | 236° |
| 2026-04-20 22:58 | 45.37562 | 125.78635 | 14979 ft | 376 kts | 237° |
| 2026-04-20 22:58 | 45.35806 | 125.75883 | 15677 ft | 382 kts | 237° |
| 2026-04-20 22:58 | 45.34016 | 125.73081 | 16412 ft | 387 kts | 237° |
| 2026-04-20 22:58 | 45.32217 | 125.70265 | 17165 ft | 391 kts | 237° |
| 2026-04-20 22:59 | 45.30370 | 125.67377 | 17892 ft | 395 kts | 237° |
| 2026-04-20 22:59 | 45.28524 | 125.64493 | 18548 ft | 400 kts | 237° |
| 2026-04-20 22:59 | 45.26638 | 125.61549 | 19249 ft | 405 kts | 237° |
| 2026-04-20 22:59 | 45.24757 | 125.58616 | 19951 ft | 408 kts | 238° |
| 2026-04-20 23:00 | 45.22850 | 125.55647 | 20692 ft | 410 kts | 238° |
| 2026-04-20 23:00 | 45.20940 | 125.52674 | 21362 ft | 413 kts | 238° |
| 2026-04-20 23:00 | 45.18996 | 125.49649 | 21949 ft | 418 kts | 238° |
| 2026-04-20 23:00 | 45.17036 | 125.46606 | 22594 ft | 421 kts | 238° |
| 2026-04-20 23:01 | 45.15054 | 125.43533 | 23302 ft | 423 kts | 238° |
| 2026-04-20 23:01 | 45.13064 | 125.40449 | 23894 ft | 426 kts | 238° |
| 2026-04-20 23:01 | 45.11081 | 125.37378 | 24418 ft | 430 kts | 238° |
| 2026-04-20 23:01 | 45.09062 | 125.34255 | 24936 ft | 434 kts | 238° |
| 2026-04-20 23:02 | 45.07024 | 125.31107 | 25505 ft | 437 kts | 238° |
| 2026-04-20 23:02 | 45.04946 | 125.27904 | 26047 ft | 440 kts | 237° |
| 2026-04-20 23:02 | 45.02989 | 125.24687 | 26515 ft | 436 kts | 243° |
| 2026-04-20 23:02 | 45.01211 | 125.21172 | 26897 ft | 439 kts | 244° |
| 2026-04-20 23:03 | 44.99441 | 125.17591 | 27416 ft | 442 kts | 244° |
| 2026-04-20 23:03 | 44.97663 | 125.14003 | 27990 ft | 443 kts | 244° |
| 2026-04-20 23:03 | 44.95881 | 125.10411 | 28461 ft | 447 kts | 244° |
| 2026-04-20 23:03 | 44.94110 | 125.06847 | 28915 ft | 450 kts | 244° |
| 2026-04-20 23:04 | 44.92294 | 125.03204 | 29429 ft | 450 kts | 244° |
| 2026-04-20 23:04 | 44.90504 | 124.99620 | 30056 ft | 448 kts | 244° |
| 2026-04-20 23:04 | 44.88720 | 124.96052 | 30599 ft | 446 kts | 243° |
| 2026-04-20 23:04 | 44.86940 | 124.92493 | 31028 ft | 448 kts | 244° |
| 2026-04-20 23:05 | 44.85131 | 124.88886 | 31358 ft | 449 kts | 243° |
| 2026-04-20 23:05 | 44.83336 | 124.85313 | 31680 ft | 449 kts | 243° |
| 2026-04-20 23:05 | 44.81551 | 124.81766 | 32054 ft | 447 kts | 243° |
| 2026-04-20 23:05 | 44.79756 | 124.78203 | 32375 ft | 446 kts | 243° |
| 2026-04-20 23:06 | 44.77963 | 124.74646 | 32625 ft | 448 kts | 243° |
| 2026-04-20 23:06 | 44.76150 | 124.71054 | 32834 ft | 451 kts | 243° |
| 2026-04-20 23:06 | 44.74339 | 124.67471 | 33115 ft | 451 kts | 242° |
| 2026-04-20 23:06 | 44.72545 | 124.63930 | 33504 ft | 448 kts | 242° |
| 2026-04-20 23:07 | 44.70750 | 124.60390 | 33868 ft | 447 kts | 242° |
| 2026-04-20 23:07 | 44.68937 | 124.56815 | 34170 ft | 449 kts | 242° |
| 2026-04-20 23:07 | 44.67128 | 124.53254 | 34490 ft | 449 kts | 242° |
| 2026-04-20 23:07 | 44.65337 | 124.49734 | 34917 ft | 447 kts | 242° |
| 2026-04-20 23:08 | 44.63516 | 124.46159 | 35291 ft | 446 kts | 242° |
| 2026-04-20 23:08 | 44.61729 | 124.42656 | 35642 ft | 445 kts | 242° |
| 2026-04-20 23:08 | 44.60017 | 124.39056 | 35937 ft | 441 kts | 248° |
| 2026-04-20 23:08 | 44.58689 | 124.35278 | 36193 ft | 435 kts | 255° |
| 2026-04-20 23:09 | 44.57744 | 124.31297 | 36488 ft | 428 kts | 261° |
| 2026-04-20 23:09 | 44.57197 | 124.27240 | 36793 ft | 423 kts | 267° |
| 2026-04-20 23:09 | 44.56874 | 124.23148 | 37029 ft | 423 kts | 268° |
| 2026-04-20 23:09 | 44.56557 | 124.19070 | 37239 ft | 425 kts | 266° |
| 2026-04-20 23:10 | 44.55957 | 124.14984 | 37486 ft | 429 kts | 259° |
| 2026-04-20 23:10 | 44.54963 | 124.11013 | 37681 ft | 435 kts | 252° |
| 2026-04-20 23:10 | 44.53567 | 124.07208 | 37869 ft | 441 kts | 245° |
| 2026-04-20 23:10 | 44.51847 | 124.03687 | 38059 ft | 446 kts | 240° |
| 2026-04-20 23:11 | 44.50013 | 124.00193 | 38232 ft | 446 kts | 240° |
| 2026-04-20 23:11 | 44.48163 | 123.96677 | 38369 ft | 447 kts | 240° |
| 2026-04-20 23:11 | 44.46334 | 123.93200 | 38529 ft | 447 kts | 241° |
| 2026-04-20 23:11 | 44.44494 | 123.89690 | 38701 ft | 446 kts | 241° |
| 2026-04-20 23:12 | 44.42705 | 123.86222 | 38839 ft | 445 kts | 241° |
| 2026-04-20 23:12 | 44.40894 | 123.82704 | 38866 ft | 447 kts | 241° |
| 2026-04-20 23:12 | 44.37247 | 123.75635 | 38862 ft | 444 kts | 241° |
| 2026-04-20 23:13 | 44.33620 | 123.68619 | 38866 ft | 446 kts | 242° |
| 2026-04-20 23:13 | 44.30016 | 123.61665 | 38867 ft | 446 kts | 242° |
| 2026-04-20 23:14 | 44.26402 | 123.54709 | 38867 ft | 443 kts | 242° |
| 2026-04-20 23:14 | 44.22770 | 123.47734 | 38861 ft | 444 kts | 242° |
| 2026-04-20 23:15 | 44.19140 | 123.40781 | 38871 ft | 442 kts | 242° |
| 2026-04-20 23:15 | 44.15543 | 123.33904 | 38881 ft | 442 kts | 241° |
| 2026-04-20 23:16 | 44.11914 | 123.26985 | 38889 ft | 442 kts | 241° |
| 2026-04-20 23:16 | 44.08315 | 123.20140 | 38899 ft | 441 kts | 242° |
| 2026-04-20 23:17 | 44.04691 | 123.13262 | 38904 ft | 440 kts | 242° |
| 2026-04-20 23:17 | 44.01082 | 123.06431 | 38902 ft | 439 kts | 242° |
| 2026-04-20 23:18 | 43.97459 | 122.99588 | 38896 ft | 437 kts | 242° |
| 2026-04-20 23:18 | 43.93869 | 122.92822 | 38913 ft | 436 kts | 242° |
| 2026-04-20 23:19 | 43.90349 | 122.85985 | 38903 ft | 435 kts | 243° |
| 2026-04-20 23:19 | 43.86866 | 122.79176 | 38898 ft | 435 kts | 243° |
| 2026-04-20 23:20 | 43.83359 | 122.72347 | 38895 ft | 431 kts | 243° |
| 2026-04-20 23:20 | 43.79908 | 122.65645 | 38918 ft | 432 kts | 243° |
| 2026-04-20 23:21 | 43.76434 | 122.58920 | 38905 ft | 427 kts | 243° |
| 2026-04-20 23:21 | 43.72968 | 122.52222 | 38916 ft | 429 kts | 243° |
| 2026-04-20 23:22 | 43.69513 | 122.45566 | 38917 ft | 425 kts | 243° |
| 2026-04-20 23:22 | 43.66081 | 122.38965 | 38917 ft | 426 kts | 243° |
| 2026-04-20 23:23 | 43.62636 | 122.32357 | 38930 ft | 425 kts | 243° |
| 2026-04-20 23:23 | 43.59193 | 122.25767 | 38931 ft | 424 kts | 243° |
| 2026-04-20 23:24 | 43.55731 | 122.19152 | 38953 ft | 425 kts | 243° |
| 2026-04-20 23:24 | 43.52338 | 122.12592 | 38924 ft | 421 kts | 244° |
| 2026-04-20 23:25 | 43.48932 | 122.06001 | 38936 ft | 422 kts | 243° |
| 2026-04-20 23:25 | 43.45559 | 121.99498 | 38949 ft | 418 kts | 244° |
| 2026-04-20 23:26 | 43.42181 | 121.92995 | 38939 ft | 421 kts | 243° |
| 2026-04-20 23:26 | 43.38786 | 121.86478 | 38944 ft | 419 kts | 243° |
| 2026-04-20 23:27 | 43.35415 | 121.80023 | 38943 ft | 418 kts | 244° |
| 2026-04-20 23:27 | 43.32016 | 121.73525 | 38949 ft | 419 kts | 244° |
| 2026-04-20 23:28 | 43.28641 | 121.67092 | 38950 ft | 417 kts | 243° |
| 2026-04-20 23:28 | 43.25240 | 121.60619 | 38947 ft | 418 kts | 244° |
| 2026-04-20 23:29 | 43.21863 | 121.54209 | 38942 ft | 417 kts | 244° |
| 2026-04-20 23:29 | 43.18457 | 121.47757 | 38947 ft | 417 kts | 244° |
| 2026-04-20 23:30 | 43.15079 | 121.41372 | 38948 ft | 414 kts | 244° |
| 2026-04-20 23:30 | 43.11695 | 121.34988 | 38946 ft | 414 kts | 243° |
| 2026-04-20 23:31 | 43.08305 | 121.28606 | 38989 ft | 416 kts | 243° |
| 2026-04-20 23:31 | 43.04941 | 121.22293 | 38972 ft | 411 kts | 243° |
| 2026-04-20 23:32 | 43.01558 | 121.15947 | 38970 ft | 415 kts | 243° |
| 2026-04-20 23:32 | 42.98163 | 121.09601 | 38974 ft | 413 kts | 243° |
| 2026-04-20 23:33 | 42.94782 | 121.03291 | 38980 ft | 414 kts | 243° |
| 2026-04-20 23:33 | 42.91414 | 120.97018 | 38972 ft | 413 kts | 243° |
| 2026-04-20 23:34 | 42.88043 | 120.90758 | 38957 ft | 410 kts | 243° |
| 2026-04-20 23:34 | 42.84646 | 120.84454 | 38976 ft | 412 kts | 243° |
| 2026-04-20 23:35 | 42.79563 | 120.75056 | 38966 ft | 409 kts | 243° |
| 2026-04-20 23:36 | 42.76206 | 120.68862 | 38965 ft | 411 kts | 243° |
| 2026-04-20 23:36 | 42.72829 | 120.62647 | 38968 ft | 408 kts | 244° |
| 2026-04-20 23:37 | 42.69452 | 120.56441 | 38965 ft | 410 kts | 244° |
| 2026-04-20 23:37 | 42.66071 | 120.50245 | 38974 ft | 409 kts | 244° |
| 2026-04-20 23:38 | 42.62714 | 120.44106 | 38969 ft | 407 kts | 244° |
| 2026-04-20 23:38 | 42.59333 | 120.37932 | 38975 ft | 406 kts | 244° |
| 2026-04-20 23:39 | 42.55985 | 120.31833 | 38994 ft | 407 kts | 243° |
| 2026-04-20 23:39 | 42.52581 | 120.25638 | 39006 ft | 411 kts | 243° |
| 2026-04-20 23:40 | 42.49200 | 120.19509 | 38989 ft | 408 kts | 243° |
| 2026-04-20 23:40 | 42.45818 | 120.13387 | 38996 ft | 407 kts | 244° |
| 2026-04-20 23:41 | 42.42416 | 120.07237 | 39012 ft | 409 kts | 244° |
| 2026-04-20 23:41 | 42.39027 | 120.01127 | 39006 ft | 406 kts | 244° |
| 2026-04-20 23:42 | 42.35636 | 119.95023 | 38997 ft | 406 kts | 244° |
| 2026-04-20 23:42 | 42.32261 | 119.88960 | 39009 ft | 408 kts | 244° |
| 2026-04-20 23:43 | 42.28859 | 119.82867 | 39013 ft | 405 kts | 244° |
| 2026-04-20 23:43 | 42.25468 | 119.76802 | 39010 ft | 404 kts | 244° |
| 2026-04-20 23:44 | 42.22091 | 119.70769 | 39009 ft | 407 kts | 244° |
| 2026-04-20 23:44 | 42.18684 | 119.64702 | 39013 ft | 405 kts | 244° |
| 2026-04-20 23:45 | 42.15300 | 119.58688 | 39007 ft | 403 kts | 244° |
| 2026-04-20 23:45 | 42.11939 | 119.52723 | 39011 ft | 403 kts | 244° |
| 2026-04-20 23:46 | 42.08543 | 119.46706 | 39002 ft | 405 kts | 244° |
| 2026-04-20 23:46 | 42.05134 | 119.40684 | 39007 ft | 401 kts | 244° |
| 2026-04-20 23:47 | 42.01790 | 119.34786 | 39009 ft | 401 kts | 244° |
| 2026-04-20 23:47 | 41.98378 | 119.28777 | 39061 ft | 404 kts | 244° |
| 2026-04-20 23:48 | 41.95004 | 119.22852 | 39057 ft | 400 kts | 244° |
| 2026-04-20 23:48 | 41.91624 | 119.16924 | 39043 ft | 399 kts | 244° |
| 2026-04-20 23:49 | 41.88244 | 119.11011 | 39059 ft | 397 kts | 245° |
| 2026-04-20 23:49 | 41.84893 | 119.05157 | 39054 ft | 398 kts | 245° |
| 2026-04-20 23:50 | 41.81551 | 118.99329 | 39018 ft | 397 kts | 244° |
| 2026-04-20 23:50 | 41.78193 | 118.93488 | 39081 ft | 394 kts | 244° |
| 2026-04-20 23:51 | 41.74891 | 118.87756 | 39060 ft | 392 kts | 244° |
| 2026-04-20 23:51 | 41.71541 | 118.81945 | 39026 ft | 393 kts | 244° |
| 2026-04-20 23:52 | 41.68210 | 118.76184 | 39070 ft | 393 kts | 244° |
| 2026-04-20 23:52 | 41.64878 | 118.70426 | 39074 ft | 395 kts | 244° |
| 2026-04-20 23:53 | 41.61550 | 118.64700 | 39062 ft | 388 kts | 244° |
| 2026-04-20 23:53 | 41.58222 | 118.58968 | 39082 ft | 392 kts | 244° |
| 2026-04-20 23:54 | 41.54896 | 118.53262 | 39064 ft | 389 kts | 244° |
| 2026-04-20 23:54 | 41.51917 | 118.47395 | 39076 ft | 378 kts | 252° |
| 2026-04-20 23:55 | 41.50069 | 118.40988 | 39055 ft | 365 kts | 263° |
| 2026-04-20 23:55 | 41.49389 | 118.34373 | 39104 ft | 356 kts | 273° |
| 2026-04-20 23:56 | 41.49757 | 118.27859 | 39086 ft | 353 kts | 277° |
| 2026-04-20 23:56 | 41.49982 | 118.21322 | 39096 ft | 356 kts | 275° |
| 2026-04-20 23:57 | 41.50084 | 118.14754 | 39117 ft | 355 kts | 274° |
| 2026-04-20 23:57 | 41.50156 | 118.08234 | 39083 ft | 352 kts | 274° |
| 2026-04-20 23:58 | 41.50220 | 118.01712 | 39075 ft | 354 kts | 274° |
| 2026-04-20 23:58 | 41.50279 | 117.95171 | 39097 ft | 356 kts | 275° |
| 2026-04-20 23:59 | 41.50333 | 117.88596 | 39048 ft | 354 kts | 274° |
| 2026-04-20 23:59 | 41.50384 | 117.82023 | 39119 ft | 356 kts | 274° |
| 2026-04-21 00:00 | 41.50431 | 117.75445 | 39103 ft | 356 kts | 274° |
| 2026-04-21 00:00 | 41.50475 | 117.68864 | 39073 ft | 355 kts | 274° |
| 2026-04-21 00:01 | 41.50515 | 117.62314 | 39099 ft | 356 kts | 274° |
| 2026-04-21 00:01 | 41.50550 | 117.55708 | 39087 ft | 355 kts | 274° |
| 2026-04-21 00:02 | 41.50582 | 117.49168 | 39101 ft | 356 kts | 272° |
| 2026-04-21 00:02 | 41.50022 | 117.42635 | 39123 ft | 359 kts | 263° |
| 2026-04-21 00:03 | 41.48312 | 117.36223 | 39068 ft | 371 kts | 252° |
| 2026-04-21 00:03 | 41.45469 | 117.30373 | 39136 ft | 390 kts | 242° |
| 2026-04-21 00:03 | 41.43590 | 117.27657 | 38769 ft | 405 kts | 236° |
| 2026-04-21 00:04 | 41.41449 | 117.25173 | 37476 ft | 426 kts | 231° |
| 2026-04-21 00:04 | 41.38968 | 117.22917 | 35899 ft | 449 kts | 224° |
| 2026-04-21 00:04 | 41.36130 | 117.21043 | 34866 ft | 463 kts | 216° |
| 2026-04-21 00:04 | 41.33849 | 117.19994 | 34211 ft | 472 kts | 210° |
| 2026-04-21 00:05 | 41.30600 | 117.19057 | 33152 ft | 485 kts | 204° |
| 2026-04-21 00:05 | 41.27280 | 117.18321 | 31988 ft | 488 kts | 204° |
| 2026-04-21 00:05 | 41.23911 | 117.17526 | 30831 ft | 495 kts | 204° |
| 2026-04-21 00:05 | 41.20553 | 117.16692 | 29621 ft | 497 kts | 203° |
| 2026-04-21 00:06 | 41.17200 | 117.15828 | 28487 ft | 495 kts | 202° |
| 2026-04-21 00:06 | 41.13815 | 117.14934 | 27285 ft | 494 kts | 202° |
| 2026-04-21 00:06 | 41.10473 | 117.14032 | 26098 ft | 493 kts | 201° |
| 2026-04-21 00:06 | 41.07164 | 117.13128 | 24907 ft | 490 kts | 201° |
| 2026-04-21 00:07 | 41.03813 | 117.12202 | 23681 ft | 487 kts | 200° |
| 2026-04-21 00:07 | 41.00527 | 117.11288 | 22434 ft | 484 kts | 199° |
| 2026-04-21 00:07 | 40.97275 | 117.10380 | 21481 ft | 472 kts | 199° |
| 2026-04-21 00:07 | 40.94155 | 117.09511 | 20725 ft | 458 kts | 199° |
| 2026-04-21 00:08 | 40.91053 | 117.08639 | 19519 ft | 455 kts | 198° |
| 2026-04-21 00:08 | 40.88007 | 117.07781 | 18669 ft | 443 kts | 198° |
| 2026-04-21 00:08 | 40.85061 | 117.06955 | 18155 ft | 424 kts | 198° |
| 2026-04-21 00:08 | 40.82233 | 117.06162 | 17685 ft | 405 kts | 198° |
| 2026-04-21 00:09 | 40.79516 | 117.05395 | 16987 ft | 396 kts | 198° |
| 2026-04-21 00:09 | 40.76847 | 117.04630 | 16073 ft | 392 kts | 200° |
| 2026-04-21 00:09 | 40.74332 | 117.03499 | 15016 ft | 386 kts | 211° |
| 2026-04-21 00:09 | 40.72033 | 117.01754 | 13898 ft | 380 kts | 221° |
| 2026-04-21 00:10 | 40.70033 | 116.99593 | 12821 ft | 377 kts | 226° |
| 2026-04-21 00:10 | 40.68060 | 116.97333 | 11715 ft | 377 kts | 226° |
| 2026-04-21 00:10 | 40.66087 | 116.95085 | 10598 ft | 377 kts | 225° |
| 2026-04-21 00:10 | 40.64127 | 116.92867 | 9507 ft | 376 kts | 225° |
| 2026-04-21 00:11 | 40.62178 | 116.90668 | 9159 ft | 353 kts | 225° |
| 2026-04-21 00:11 | 40.60402 | 116.88671 | 9153 ft | 325 kts | 226° |
| 2026-04-21 00:11 | 40.58751 | 116.86810 | 9116 ft | 300 kts | 226° |
| 2026-04-21 00:11 | 40.57239 | 116.85105 | 9097 ft | 278 kts | 227° |
| 2026-04-21 00:12 | 40.55802 | 116.83482 | 9095 ft | 264 kts | 227° |
| 2026-04-21 00:12 | 40.54457 | 116.81962 | 9073 ft | 250 kts | 227° |
| 2026-04-21 00:12 | 40.53157 | 116.80496 | 9063 ft | 236 kts | 228° |
| 2026-04-21 00:12 | 40.51954 | 116.79140 | 9022 ft | 223 kts | 228° |
| 2026-04-21 00:13 | 40.50778 | 116.77809 | 8795 ft | 240 kts | 229° |
| 2026-04-21 00:13 | 40.49491 | 116.76350 | 8738 ft | 253 kts | 227° |
| 2026-04-21 00:13 | 40.48109 | 116.74797 | 8872 ft | 255 kts | 227° |
| 2026-04-21 00:13 | 40.46800 | 116.73336 | 8856 ft | 244 kts | 227° |
| 2026-04-21 00:14 | 40.45490 | 116.71863 | 8913 ft | 258 kts | 226° |
| 2026-04-21 00:14 | 40.43975 | 116.70430 | 9211 ft | 277 kts | 217° |
| 2026-04-21 00:14 | 40.42224 | 116.69289 | 9535 ft | 286 kts | 207° |
| 2026-04-21 00:14 | 40.40265 | 116.68510 | 9642 ft | 305 kts | 197° |
| 2026-04-21 00:15 | 40.38088 | 116.68179 | 9675 ft | 322 kts | 185° |
| 2026-04-21 00:15 | 40.35875 | 116.68430 | 9704 ft | 323 kts | 173° |
| 2026-04-21 00:15 | 40.33703 | 116.68997 | 9670 ft | 313 kts | 173° |
| 2026-04-21 00:15 | 40.31587 | 116.69463 | 9674 ft | 299 kts | 175° |
| 2026-04-21 00:16 | 40.29550 | 116.69833 | 9520 ft | 292 kts | 176° |
| 2026-04-21 00:16 | 40.27554 | 116.70158 | 9245 ft | 291 kts | 178° |
| 2026-04-21 00:16 | 40.25545 | 116.70472 | 8890 ft | 291 kts | 178° |
| 2026-04-21 00:16 | 40.23516 | 116.70786 | 8479 ft | 293 kts | 177° |
| 2026-04-21 00:17 | 40.21508 | 116.71097 | 8014 ft | 292 kts | 177° |
| 2026-04-21 00:17 | 40.19490 | 116.71410 | 7629 ft | 293 kts | 176° |
| 2026-04-21 00:17 | 40.17470 | 116.71722 | 7282 ft | 293 kts | 176° |
| 2026-04-21 00:17 | 40.15483 | 116.72032 | 7074 ft | 285 kts | 177° |
| 2026-04-21 00:18 | 40.13464 | 116.72342 | 6621 ft | 291 kts | 176° |
| 2026-04-21 00:18 | 40.11470 | 116.72650 | 6164 ft | 290 kts | 176° |
| 2026-04-21 00:18 | 40.09470 | 116.72960 | 5667 ft | 290 kts | 177° |
| 2026-04-21 00:18 | 40.07484 | 116.73267 | 5134 ft | 288 kts | 176° |
| 2026-04-21 00:19 | 40.05505 | 116.73572 | 4595 ft | 286 kts | 177° |
| 2026-04-21 00:19 | 40.03532 | 116.73875 | 3999 ft | 286 kts | 176° |
| 2026-04-21 00:19 | 40.01571 | 116.74178 | 3381 ft | 286 kts | 176° |
| 2026-04-21 00:19 | 39.99600 | 116.74425 | 2940 ft | 277 kts | 185° |
| 2026-04-21 00:20 | 39.97715 | 116.74256 | 2614 ft | 268 kts | 188° |
| 2026-04-21 00:20 | 39.95872 | 116.73972 | 2269 ft | 266 kts | 195° |
| 2026-04-21 00:20 | 39.94167 | 116.73124 | 1946 ft | 260 kts | 208° |
| 2026-04-21 00:20 | 39.92578 | 116.72102 | 1860 ft | 244 kts | 213° |
| 2026-04-21 00:21 | 39.91340 | 116.70651 | 1872 ft | 238 kts | 237° |
| 2026-04-21 00:21 | 39.90470 | 116.68887 | 1876 ft | 218 kts | 247° |
| 2026-04-21 00:21 | 39.90220 | 116.67064 | 1623 ft | 200 kts | 280° |
| 2026-04-21 00:21 | 39.90808 | 116.65572 | 1423 ft | 176 kts | 315° |
| 2026-04-21 00:22 | 39.91671 | 116.64520 | 1297 ft | 167 kts | 317° |
| 2026-04-21 00:22 | 39.92652 | 116.63816 | 1152 ft | 158 kts | 347° |
| 2026-04-21 00:22 | 39.93734 | 116.63648 | 1041 ft | 153 kts | 353° |
| 2026-04-21 00:22 | 39.94786 | 116.63524 | 1108 ft | 154 kts | 353° |
| 2026-04-21 00:23 | 39.95851 | 116.63412 | 1281 ft | 155 kts | 351° |
| 2026-04-21 00:23 | 39.96932 | 116.63229 | 1303 ft | 155 kts | 348° |
| 2026-04-21 00:23 | 39.98002 | 116.63041 | 1292 ft | 152 kts | 351° |
| 2026-04-21 00:23 | 39.99066 | 116.62874 | 1328 ft | 153 kts | 351° |
| 2026-04-21 00:24 | 40.00116 | 116.62686 | 1262 ft | 153 kts | 350° |
| 2026-04-21 00:24 | 40.01183 | 116.62495 | 1107 ft | 153 kts | 350° |
| 2026-04-21 00:24 | 40.02235 | 116.62306 | 902 ft | 153 kts | 352° |
| 2026-04-21 00:24 | 40.03286 | 116.62149 | 691 ft | 153 kts | 353° |
| 2026-04-21 00:25 | 40.04341 | 116.61994 | 481 ft | 151 kts | 353° |
| 2026-04-21 00:25 | 40.05391 | 116.61824 | 293 ft | 153 kts | 353° |
| 2026-04-21 00:25 | 40.06435 | 116.61673 | 136 ft | 145 kts | 354° |
| 2026-04-21 00:25 | 40.07326 | 116.61536 | 131 ft | 108 kts | 352° |
| 2026-04-21 00:26 | 40.07925 | 116.61440 | 131 ft | 64 kts | 355° |
| 2026-04-21 00:26 | 40.08180 | 116.61395 | 131 ft | 22 kts | 343° |
| 2026-04-21 00:26 | 40.08318 | 116.61306 | 131 ft | 20 kts | 332° |
| 2026-04-21 00:26 | 40.08374 | 116.61265 | 131 ft | 1 kts | 323° |
| 2026-04-21 00:27 | 40.08384 | 116.61256 | 131 ft | 1 kts | 319° |
| 2026-04-21 00:27 | 40.08401 | 116.61217 | 131 ft | 9 kts | 287° |
| 2026-04-21 00:27 | 40.08391 | 116.61088 | 131 ft | 19 kts | 252° |
| 2026-04-21 00:27 | 40.08274 | 116.61042 | 131 ft | 18 kts | 174° |
| 2026-04-21 00:28 | 40.08151 | 116.61054 | 131 ft | 17 kts | 176° |
| 2026-04-21 00:28 | 40.08037 | 116.61067 | 131 ft | 15 kts | 173° |
| 2026-04-21 00:28 | 40.07911 | 116.61092 | 131 ft | 19 kts | 172° |
| 2026-04-21 00:28 | 40.07778 | 116.61113 | 131 ft | 18 kts | 174° |
| 2026-04-21 00:29 | 40.07658 | 116.61131 | 131 ft | 16 kts | 173° |
| 2026-04-21 00:29 | 40.07548 | 116.61149 | 131 ft | 15 kts | 173° |
| 2026-04-21 00:29 | 40.07465 | 116.61127 | 131 ft | 10 kts | 232° |
| 2026-04-21 00:29 | 40.07444 | 116.61031 | 131 ft | 12 kts | 262° |
| 2026-04-21 00:30 | 40.07424 | 116.60918 | 131 ft | 8 kts | 236° |
| 2026-04-21 00:30 | 40.07388 | 116.60906 | 131 ft | 5 kts | 172° |
| 2026-04-21 00:30 | 40.07347 | 116.60914 | 131 ft | 6 kts | 173° |
| 2026-04-21 00:30 | 40.07285 | 116.60924 | 131 ft | 10 kts | 173° |
| 2026-04-21 00:31 | 40.07204 | 116.60936 | 131 ft | 12 kts | 173° |
| 2026-04-21 00:31 | 40.07146 | 116.60953 | 131 ft | 4 kts | 130° |
| 2026-04-21 00:31 | 40.07143 | 116.60988 | 131 ft | 3 kts | 87° |
| 2026-04-21 00:31 | 40.07146 | 116.61021 | 131 ft | 3 kts | 83° |
| 2026-04-21 00:32 | 40.07147 | 116.61033 | 131 ft | 1 kts | 84° |
| 2026-04-21 00:32 | 40.07147 | 116.61034 | 131 ft | 0 kts | 84° |